sensor_id;sensor_type;location;lat;lon;timestamp;pressure;altitude;pressure_sealevel;temperature;humidity
33795;BME280;51430;52.242;21.118;2022-08-03T00:02:19;100555.46;;;18.00;90.97
33795;BME280;51430;52.242;21.118;2022-08-03T00:04:47;100556.70;;;17.98;91.21
33795;BME280;51430;52.242;21.118;2022-08-03T00:07:15;100551.23;;;17.92;91.38
33795;BME280;51430;52.242;21.118;2022-08-03T00:09:44;100555.23;;;17.88;91.47
33795;BME280;51430;52.242;21.118;2022-08-03T00:12:12;100554.82;;;17.86;91.60
33795;BME280;51430;52.242;21.118;2022-08-03T00:14:41;100553.75;;;17.82;91.58
33795;BME280;51430;52.242;21.118;2022-08-03T00:17:09;100556.69;;;17.81;91.60
33795;BME280;51430;52.242;21.118;2022-08-03T00:19:37;100556.37;;;17.78;91.78
33795;BME280;51430;52.242;21.118;2022-08-03T00:22:05;100558.46;;;17.73;91.85
33795;BME280;51430;52.242;21.118;2022-08-03T00:24:33;100556.19;;;17.66;92.01
33795;BME280;51430;52.242;21.118;2022-08-03T00:27:03;100560.36;;;17.63;92.28
33795;BME280;51430;52.242;21.118;2022-08-03T00:29:31;100560.29;;;17.60;92.32
33795;BME280;51430;52.242;21.118;2022-08-03T00:31:59;100557.73;;;17.56;92.29
33795;BME280;51430;52.242;21.118;2022-08-03T00:34:27;100554.71;;;17.54;92.32
33795;BME280;51430;52.242;21.118;2022-08-03T00:37:15;100555.08;;;17.53;92.80
33795;BME280;51430;52.242;21.118;2022-08-03T00:39:43;100554.55;;;17.53;92.82
33795;BME280;51430;52.242;21.118;2022-08-03T00:42:14;100555.60;;;17.52;92.70
33795;BME280;51430;52.242;21.118;2022-08-03T00:44:44;100557.82;;;17.52;92.99
33795;BME280;51430;52.242;21.118;2022-08-03T00:47:12;100557.02;;;17.51;93.99
33795;BME280;51430;52.242;21.118;2022-08-03T00:49:40;100553.56;;;17.49;93.92
33795;BME280;51430;52.242;21.118;2022-08-03T00:52:09;100559.11;;;17.48;94.02
33795;BME280;51430;52.242;21.118;2022-08-03T00:54:38;100557.77;;;17.45;94.02
33795;BME280;51430;52.242;21.118;2022-08-03T00:57:07;100556.52;;;17.42;94.00
33795;BME280;51430;52.242;21.118;2022-08-03T00:59:35;100556.87;;;17.36;94.14
33795;BME280;51430;52.242;21.118;2022-08-03T01:02:05;100555.29;;;17.31;94.28
33795;BME280;51430;52.242;21.118;2022-08-03T01:04:33;100555.02;;;17.27;94.51
33795;BME280;51430;52.242;21.118;2022-08-03T01:10:00;100562.44;;;17.18;95.23
33795;BME280;51430;52.242;21.118;2022-08-03T01:13:00;100564.16;;;17.15;95.43
33795;BME280;51430;52.242;21.118;2022-08-03T01:15:45;100565.31;;;17.10;96.23
33795;BME280;51430;52.242;21.118;2022-08-03T01:18:21;100569.66;;;17.06;96.61
33795;BME280;51430;52.242;21.118;2022-08-03T01:20:56;100569.88;;;17.00;97.04
33795;BME280;51430;52.242;21.118;2022-08-03T01:23:48;100567.86;;;16.97;97.35
33795;BME280;51430;52.242;21.118;2022-08-03T01:30:12;100564.84;;;16.94;97.64
33795;BME280;51430;52.242;21.118;2022-08-03T01:32:45;100564.52;;;16.96;97.62
33795;BME280;51430;52.242;21.118;2022-08-03T01:35:59;100566.45;;;16.97;97.39
33795;BME280;51430;52.242;21.118;2022-08-03T01:38:36;100564.38;;;16.95;97.56
33795;BME280;51430;52.242;21.118;2022-08-03T01:41:09;100564.98;;;16.91;97.64
33795;BME280;51430;52.242;21.118;2022-08-03T01:43:41;100566.42;;;16.89;97.60
33795;BME280;51430;52.242;21.118;2022-08-03T01:46:30;100562.95;;;16.90;97.72
33795;BME280;51430;52.242;21.118;2022-08-03T01:49:16;100562.92;;;16.89;97.61
33795;BME280;51430;52.242;21.118;2022-08-03T01:51:46;100561.89;;;16.87;97.55
33795;BME280;51430;52.242;21.118;2022-08-03T01:54:35;100553.83;;;16.83;97.65
33795;BME280;51430;52.242;21.118;2022-08-03T01:57:04;100554.50;;;16.81;97.65
33795;BME280;51430;52.242;21.118;2022-08-03T01:59:34;100551.66;;;16.78;97.80
33795;BME280;51430;52.242;21.118;2022-08-03T02:02:04;100547.89;;;16.77;97.85
33795;BME280;51430;52.242;21.118;2022-08-03T02:04:56;100544.23;;;16.77;97.89
33795;BME280;51430;52.242;21.118;2022-08-03T02:07:26;100546.34;;;16.75;98.01
33795;BME280;51430;52.242;21.118;2022-08-03T02:09:57;100544.73;;;16.73;97.86
33795;BME280;51430;52.242;21.118;2022-08-03T02:12:29;100547.70;;;16.70;98.16
33795;BME280;51430;52.242;21.118;2022-08-03T02:14:59;100547.11;;;16.69;98.18
33795;BME280;51430;52.242;21.118;2022-08-03T02:17:30;100548.10;;;16.68;98.07
33795;BME280;51430;52.242;21.118;2022-08-03T02:20:10;100547.09;;;16.66;98.06
33795;BME280;51430;52.242;21.118;2022-08-03T02:22:47;100540.90;;;16.61;98.23
33795;BME280;51430;52.242;21.118;2022-08-03T02:25:16;100537.76;;;16.55;98.31
33795;BME280;51430;52.242;21.118;2022-08-03T02:28:20;100538.80;;;16.50;98.53
33795;BME280;51430;52.242;21.118;2022-08-03T02:30:53;100536.79;;;16.45;99.03
33795;BME280;51430;52.242;21.118;2022-08-03T02:33:27;100536.31;;;16.43;99.23
33795;BME280;51430;52.242;21.118;2022-08-03T02:35:59;100537.77;;;16.40;99.33
33795;BME280;51430;52.242;21.118;2022-08-03T02:38:33;100535.73;;;16.41;99.35
33795;BME280;51430;52.242;21.118;2022-08-03T02:41:06;100539.40;;;16.44;99.56
33795;BME280;51430;52.242;21.118;2022-08-03T02:43:37;100543.30;;;16.45;99.37
33795;BME280;51430;52.242;21.118;2022-08-03T02:46:32;100546.66;;;16.45;99.46
33795;BME280;51430;52.242;21.118;2022-08-03T02:49:02;100549.17;;;16.46;99.44
33795;BME280;51430;52.242;21.118;2022-08-03T02:51:52;100551.98;;;16.43;99.39
33795;BME280;51430;52.242;21.118;2022-08-03T02:54:24;100549.09;;;16.41;99.63
33795;BME280;51430;52.242;21.118;2022-08-03T02:56:56;100553.34;;;16.41;99.81
33795;BME280;51430;52.242;21.118;2022-08-03T02:59:27;100550.27;;;16.40;99.83
33795;BME280;51430;52.242;21.118;2022-08-03T03:01:59;100548.13;;;16.41;99.84
33795;BME280;51430;52.242;21.118;2022-08-03T03:04:29;100550.60;;;16.42;99.83
33795;BME280;51430;52.242;21.118;2022-08-03T03:07:00;100551.67;;;16.48;99.80
33795;BME280;51430;52.242;21.118;2022-08-03T03:09:32;100552.12;;;16.52;99.80
33795;BME280;51430;52.242;21.118;2022-08-03T03:12:11;100551.89;;;16.53;99.48
33795;BME280;51430;52.242;21.118;2022-08-03T03:14:40;100553.33;;;16.58;99.49
33795;BME280;51430;52.242;21.118;2022-08-03T03:17:10;100557.71;;;16.65;99.36
33795;BME280;51430;52.242;21.118;2022-08-03T03:19:39;100559.77;;;16.71;99.21
33795;BME280;51430;52.242;21.118;2022-08-03T03:22:08;100561.04;;;16.77;99.17
33795;BME280;51430;52.242;21.118;2022-08-03T03:24:38;100556.41;;;16.87;99.12
33795;BME280;51430;52.242;21.118;2022-08-03T03:27:08;100560.75;;;16.96;99.02
33795;BME280;51430;52.242;21.118;2022-08-03T03:29:43;100566.23;;;17.06;98.55
33795;BME280;51430;52.242;21.118;2022-08-03T03:32:12;100572.79;;;17.06;98.23
33795;BME280;51430;52.242;21.118;2022-08-03T03:34:41;100570.66;;;17.05;98.51
33795;BME280;51430;52.242;21.118;2022-08-03T03:37:11;100570.08;;;17.07;98.56
33795;BME280;51430;52.242;21.118;2022-08-03T03:39:38;100567.47;;;17.10;98.71
33795;BME280;51430;52.242;21.118;2022-08-03T03:42:07;100568.88;;;17.17;98.93
33795;BME280;51430;52.242;21.118;2022-08-03T03:44:35;100567.04;;;17.25;98.79
33795;BME280;51430;52.242;21.118;2022-08-03T03:47:03;100567.85;;;17.32;98.84
33795;BME280;51430;52.242;21.118;2022-08-03T03:49:31;100570.83;;;17.41;98.71
33795;BME280;51430;52.242;21.118;2022-08-03T03:51:59;100568.73;;;17.50;98.43
33795;BME280;51430;52.242;21.118;2022-08-03T03:54:41;100571.66;;;17.56;98.32
33795;BME280;51430;52.242;21.118;2022-08-03T03:57:10;100574.98;;;17.61;98.26
33795;BME280;51430;52.242;21.118;2022-08-03T03:59:41;100576.57;;;17.68;98.56
33795;BME280;51430;52.242;21.118;2022-08-03T04:02:10;100578.45;;;17.75;98.46
33795;BME280;51430;52.242;21.118;2022-08-03T04:04:38;100577.90;;;17.84;98.32
33795;BME280;51430;52.242;21.118;2022-08-03T04:07:26;100582.34;;;17.96;98.01
33795;BME280;51430;52.242;21.118;2022-08-03T04:10:33;100586.56;;;18.06;97.47
33795;BME280;51430;52.242;21.118;2022-08-03T04:13:21;100592.24;;;18.12;97.21
33795;BME280;51430;52.242;21.118;2022-08-03T04:15:50;100593.98;;;18.14;97.12
33795;BME280;51430;52.242;21.118;2022-08-03T04:18:20;100593.77;;;18.19;97.16
33795;BME280;51430;52.242;21.118;2022-08-03T04:20:49;100596.73;;;18.20;97.74
33795;BME280;51430;52.242;21.118;2022-08-03T04:23:20;100597.56;;;18.24;98.41
33795;BME280;51430;52.242;21.118;2022-08-03T04:25:50;100601.54;;;18.30;98.76
33795;BME280;51430;52.242;21.118;2022-08-03T04:28:21;100602.89;;;18.37;98.71
33795;BME280;51430;52.242;21.118;2022-08-03T04:31:11;100601.00;;;18.44;98.52
33795;BME280;51430;52.242;21.118;2022-08-03T04:33:43;100608.13;;;18.51;98.36
33795;BME280;51430;52.242;21.118;2022-08-03T04:36:15;100610.98;;;18.66;98.21
33795;BME280;51430;52.242;21.118;2022-08-03T04:39:32;100611.15;;;18.77;97.47
33795;BME280;51430;52.242;21.118;2022-08-03T04:42:01;100609.87;;;18.83;97.35
33795;BME280;51430;52.242;21.118;2022-08-03T04:44:38;100612.96;;;18.98;97.34
33795;BME280;51430;52.242;21.118;2022-08-03T04:47:08;100618.41;;;19.03;96.84
33795;BME280;51430;52.242;21.118;2022-08-03T04:49:36;100617.90;;;19.06;96.93
33795;BME280;51430;52.242;21.118;2022-08-03T04:52:07;100622.42;;;19.24;96.59
33795;BME280;51430;52.242;21.118;2022-08-03T04:54:44;100621.48;;;19.39;95.06
33795;BME280;51430;52.242;21.118;2022-08-03T04:57:18;100624.60;;;19.57;94.19
33795;BME280;51430;52.242;21.118;2022-08-03T04:59:53;100627.08;;;19.67;93.82
33795;BME280;51430;52.242;21.118;2022-08-03T05:02:30;100626.59;;;19.70;93.13
33795;BME280;51430;52.242;21.118;2022-08-03T05:04:59;100624.80;;;19.62;92.48
33795;BME280;51430;52.242;21.118;2022-08-03T05:07:27;100628.24;;;19.58;92.61
33795;BME280;51430;52.242;21.118;2022-08-03T05:10:04;100623.48;;;19.52;92.70
33795;BME280;51430;52.242;21.118;2022-08-03T05:12:47;100629.05;;;19.60;92.36
33795;BME280;51430;52.242;21.118;2022-08-03T05:15:18;100631.60;;;19.72;91.90
33795;BME280;51430;52.242;21.118;2022-08-03T05:17:46;100634.54;;;19.90;91.23
33795;BME280;51430;52.242;21.118;2022-08-03T05:20:14;100636.20;;;19.99;90.73
33795;BME280;51430;52.242;21.118;2022-08-03T05:22:45;100639.60;;;20.07;90.35
33795;BME280;51430;52.242;21.118;2022-08-03T05:25:13;100639.09;;;20.16;89.96
33795;BME280;51430;52.242;21.118;2022-08-03T05:27:46;100636.66;;;20.21;89.57
33795;BME280;51430;52.242;21.118;2022-08-03T05:30:14;100638.61;;;20.22;89.41
33795;BME280;51430;52.242;21.118;2022-08-03T05:33:02;100641.67;;;20.09;89.54
33795;BME280;51430;52.242;21.118;2022-08-03T05:35:31;100644.57;;;20.05;90.16
33795;BME280;51430;52.242;21.118;2022-08-03T05:38:22;100645.19;;;20.06;90.12
33795;BME280;51430;52.242;21.118;2022-08-03T05:41:04;100647.02;;;20.10;90.47
33795;BME280;51430;52.242;21.118;2022-08-03T05:44:10;100649.29;;;20.28;90.08
33795;BME280;51430;52.242;21.118;2022-08-03T05:46:38;100652.34;;;20.49;89.27
33795;BME280;51430;52.242;21.118;2022-08-03T05:49:06;100653.81;;;20.77;88.59
33795;BME280;51430;52.242;21.118;2022-08-03T05:51:34;100655.70;;;20.85;87.39
33795;BME280;51430;52.242;21.118;2022-08-03T05:54:04;100657.77;;;20.93;87.10
33795;BME280;51430;52.242;21.118;2022-08-03T05:56:32;100658.12;;;20.95;87.04
33795;BME280;51430;52.242;21.118;2022-08-03T05:59:00;100657.05;;;20.93;86.97
33795;BME280;51430;52.242;21.118;2022-08-03T06:01:48;100658.95;;;20.89;87.09
33795;BME280;51430;52.242;21.118;2022-08-03T06:04:16;100658.48;;;20.87;87.03
33795;BME280;51430;52.242;21.118;2022-08-03T06:06:44;100663.66;;;20.85;87.21
33795;BME280;51430;52.242;21.118;2022-08-03T06:09:12;100664.59;;;20.83;87.66
33795;BME280;51430;52.242;21.118;2022-08-03T06:11:42;100670.16;;;20.82;88.09
33795;BME280;51430;52.242;21.118;2022-08-03T06:14:12;100669.56;;;20.85;88.37
33795;BME280;51430;52.242;21.118;2022-08-03T06:16:40;100671.19;;;20.97;88.49
33795;BME280;51430;52.242;21.118;2022-08-03T06:19:08;100668.58;;;21.14;87.57
33795;BME280;51430;52.242;21.118;2022-08-03T06:21:36;100671.61;;;21.46;86.64
33795;BME280;51430;52.242;21.118;2022-08-03T06:27:50;100675.27;;;23.26;77.90
33795;BME280;51430;52.242;21.118;2022-08-03T06:30:18;100675.55;;;23.78;76.19
33795;BME280;51430;52.242;21.118;2022-08-03T06:32:48;100672.81;;;23.86;73.47
33795;BME280;51430;52.242;21.118;2022-08-03T06:35:19;100676.45;;;23.81;74.32
33795;BME280;51430;52.242;21.118;2022-08-03T06:37:48;100674.36;;;23.64;73.55
33795;BME280;51430;52.242;21.118;2022-08-03T06:40:19;100674.19;;;23.24;74.44
33795;BME280;51430;52.242;21.118;2022-08-03T06:42:57;100675.62;;;23.30;74.73
33795;BME280;51430;52.242;21.118;2022-08-03T06:45:27;100674.38;;;23.45;74.68
33795;BME280;51430;52.242;21.118;2022-08-03T06:48:09;100674.02;;;23.39;74.94
33795;BME280;51430;52.242;21.118;2022-08-03T06:50:39;100674.18;;;23.20;75.12
33795;BME280;51430;52.242;21.118;2022-08-03T06:53:09;100676.97;;;22.92;75.64
33795;BME280;51430;52.242;21.118;2022-08-03T06:55:48;100678.77;;;22.85;76.17
33795;BME280;51430;52.242;21.118;2022-08-03T06:58:21;100680.40;;;22.90;76.10
33795;BME280;51430;52.242;21.118;2022-08-03T07:00:50;100676.20;;;22.83;76.33
33795;BME280;51430;52.242;21.118;2022-08-03T07:03:18;100675.71;;;22.84;76.88
33795;BME280;51430;52.242;21.118;2022-08-03T07:05:46;100677.20;;;22.95;76.88
33795;BME280;51430;52.242;21.118;2022-08-03T07:08:14;100681.06;;;23.05;76.49
33795;BME280;51430;52.242;21.118;2022-08-03T07:10:43;100686.16;;;23.13;76.47
33795;BME280;51430;52.242;21.118;2022-08-03T07:13:11;100686.13;;;23.17;76.16
33795;BME280;51430;52.242;21.118;2022-08-03T07:15:39;100687.45;;;23.24;75.98
33795;BME280;51430;52.242;21.118;2022-08-03T07:18:22;100693.80;;;23.28;76.07
33795;BME280;51430;52.242;21.118;2022-08-03T07:20:57;100693.31;;;23.25;75.81
33795;BME280;51430;52.242;21.118;2022-08-03T07:23:25;100690.44;;;23.30;75.73
33795;BME280;51430;52.242;21.118;2022-08-03T07:25:53;100692.69;;;23.32;75.50
33795;BME280;51430;52.242;21.118;2022-08-03T07:28:21;100691.33;;;23.43;75.46
33795;BME280;51430;52.242;21.118;2022-08-03T07:30:49;100692.33;;;23.57;74.41
33795;BME280;51430;52.242;21.118;2022-08-03T07:33:17;100693.92;;;23.86;74.77
33795;BME280;51430;52.242;21.118;2022-08-03T07:35:45;100693.73;;;24.34;73.53
33795;BME280;51430;52.242;21.118;2022-08-03T07:38:13;100695.70;;;24.76;71.14
33795;BME280;51430;52.242;21.118;2022-08-03T07:40:41;100694.91;;;25.03;71.11
33795;BME280;51430;52.242;21.118;2022-08-03T07:43:13;100697.36;;;25.23;69.75
33795;BME280;51430;52.242;21.118;2022-08-03T07:45:40;100698.95;;;25.05;69.76
33795;BME280;51430;52.242;21.118;2022-08-03T07:48:08;100701.67;;;25.20;70.28
33795;BME280;51430;52.242;21.118;2022-08-03T07:50:39;100699.40;;;25.18;70.02
33795;BME280;51430;52.242;21.118;2022-08-03T07:53:07;100703.36;;;25.08;69.40
33795;BME280;51430;52.242;21.118;2022-08-03T07:55:35;100705.98;;;25.05;70.05
33795;BME280;51430;52.242;21.118;2022-08-03T07:58:08;100706.69;;;25.07;69.83
33795;BME280;51430;52.242;21.118;2022-08-03T08:00:39;100702.64;;;25.14;70.22
33795;BME280;51430;52.242;21.118;2022-08-03T08:03:07;100704.60;;;25.19;70.29
33795;BME280;51430;52.242;21.118;2022-08-03T08:05:35;100708.60;;;25.60;69.37
33795;BME280;51430;52.242;21.118;2022-08-03T08:08:04;100710.63;;;26.83;66.41
33795;BME280;51430;52.242;21.118;2022-08-03T08:10:32;100712.80;;;27.91;62.50
33795;BME280;51430;52.242;21.118;2022-08-03T08:13:00;100717.91;;;28.92;59.82
33795;BME280;51430;52.242;21.118;2022-08-03T08:15:28;100719.88;;;29.30;57.56
33795;BME280;51430;52.242;21.118;2022-08-03T08:17:59;100722.11;;;29.08;57.74
33795;BME280;51430;52.242;21.118;2022-08-03T08:20:31;100723.23;;;29.46;56.94
33795;BME280;51430;52.242;21.118;2022-08-03T08:23:06;100725.16;;;30.26;54.72
33795;BME280;51430;52.242;21.118;2022-08-03T08:25:55;100729.34;;;30.98;53.06
33795;BME280;51430;52.242;21.118;2022-08-03T08:28:23;100729.05;;;31.69;51.48
33795;BME280;51430;52.242;21.118;2022-08-03T08:31:00;100730.61;;;32.36;49.46
33795;BME280;51430;52.242;21.118;2022-08-03T08:33:29;100734.52;;;32.58;48.61
33795;BME280;51430;52.242;21.118;2022-08-03T08:36:17;100737.52;;;33.28;48.01
33795;BME280;51430;52.242;21.118;2022-08-03T08:38:46;100740.91;;;33.61;44.93
33795;BME280;51430;52.242;21.118;2022-08-03T08:41:15;100739.68;;;33.68;44.71
33795;BME280;51430;52.242;21.118;2022-08-03T08:43:44;100740.04;;;33.82;43.86
33795;BME280;51430;52.242;21.118;2022-08-03T08:46:13;100742.45;;;34.37;44.14
33795;BME280;51430;52.242;21.118;2022-08-03T08:48:52;100740.68;;;35.15;42.68
33795;BME280;51430;52.242;21.118;2022-08-03T08:51:27;100744.28;;;35.54;38.78
33795;BME280;51430;52.242;21.118;2022-08-03T08:54:19;100745.59;;;35.82;39.11
33795;BME280;51430;52.242;21.118;2022-08-03T08:57:12;100745.58;;;36.45;38.43
33795;BME280;51430;52.242;21.118;2022-08-03T09:00:01;100745.23;;;36.81;37.25
33795;BME280;51430;52.242;21.118;2022-08-03T09:02:29;100745.41;;;37.08;37.31
33795;BME280;51430;52.242;21.118;2022-08-03T09:04:58;100745.90;;;37.21;35.85
33795;BME280;51430;52.242;21.118;2022-08-03T09:07:47;100741.75;;;37.08;34.87
33795;BME280;51430;52.242;21.118;2022-08-03T09:10:17;100740.53;;;37.14;35.52
33795;BME280;51430;52.242;21.118;2022-08-03T09:12:49;100747.89;;;37.73;36.04
33795;BME280;51430;52.242;21.118;2022-08-03T09:17:55;100750.17;;;38.42;34.80
33795;BME280;51430;52.242;21.118;2022-08-03T09:20:26;100748.85;;;38.78;34.14
33795;BME280;51430;52.242;21.118;2022-08-03T09:22:58;100749.88;;;39.00;33.32
33795;BME280;51430;52.242;21.118;2022-08-03T09:28:10;100752.29;;;39.25;32.44
33795;BME280;51430;52.242;21.118;2022-08-03T09:30:40;100749.84;;;39.27;30.66
33795;BME280;51430;52.242;21.118;2022-08-03T09:33:11;100750.27;;;39.11;31.17
33795;BME280;51430;52.242;21.118;2022-08-03T09:35:45;100746.75;;;39.02;31.72
33795;BME280;51430;52.242;21.118;2022-08-03T09:38:26;100747.42;;;39.11;31.45
33795;BME280;51430;52.242;21.118;2022-08-03T09:40:55;100744.52;;;39.52;30.91
33795;BME280;51430;52.242;21.118;2022-08-03T09:43:27;100744.59;;;39.96;30.32
33795;BME280;51430;52.242;21.118;2022-08-03T09:46:12;100745.96;;;39.13;30.15
33795;BME280;51430;52.242;21.118;2022-08-03T09:48:40;100744.10;;;37.94;31.12
33795;BME280;51430;52.242;21.118;2022-08-03T09:51:08;100735.83;;;36.39;33.54
33795;BME280;51430;52.242;21.118;2022-08-03T09:53:56;100736.98;;;36.85;32.92
33795;BME280;51430;52.242;21.118;2022-08-03T09:56:43;100734.45;;;35.73;33.72
33795;BME280;51430;52.242;21.118;2022-08-03T09:59:21;100727.26;;;34.57;35.49
33795;BME280;51430;52.242;21.118;2022-08-03T10:01:50;100728.17;;;34.01;37.63
33795;BME280;51430;52.242;21.118;2022-08-03T10:04:18;100722.55;;;33.49;40.00
33795;BME280;51430;52.242;21.118;2022-08-03T10:07:07;100720.95;;;32.92;41.26
33795;BME280;51430;52.242;21.118;2022-08-03T10:09:37;100715.63;;;32.31;41.15
33795;BME280;51430;52.242;21.118;2022-08-03T10:12:09;100711.36;;;31.97;42.98
33795;BME280;51430;52.242;21.118;2022-08-03T10:14:40;100714.54;;;31.87;42.40
33795;BME280;51430;52.242;21.118;2022-08-03T10:17:10;100716.13;;;32.48;40.32
33795;BME280;51430;52.242;21.118;2022-08-03T10:19:39;100717.61;;;33.33;39.10
33795;BME280;51430;52.242;21.118;2022-08-03T10:24:54;100720.39;;;32.34;40.01
33795;BME280;51430;52.242;21.118;2022-08-03T10:27:24;100715.95;;;31.99;41.58
33795;BME280;51430;52.242;21.118;2022-08-03T10:30:00;100716.73;;;32.04;40.90
33795;BME280;51430;52.242;21.118;2022-08-03T10:32:33;100717.84;;;33.30;40.22
33795;BME280;51430;52.242;21.118;2022-08-03T10:35:05;100724.00;;;33.37;37.81
33795;BME280;51430;52.242;21.118;2022-08-03T10:38:11;100722.88;;;34.55;37.48
33795;BME280;51430;52.242;21.118;2022-08-03T10:40:43;100724.98;;;36.59;34.72
33795;BME280;51430;52.242;21.118;2022-08-03T10:43:25;100729.92;;;37.67;32.00
33795;BME280;51430;52.242;21.118;2022-08-03T10:45:55;100731.38;;;37.23;31.80
33795;BME280;51430;52.242;21.118;2022-08-03T10:48:24;100727.56;;;37.59;32.27
33795;BME280;51430;52.242;21.118;2022-08-03T10:50:53;100727.66;;;38.68;32.22
33795;BME280;51430;52.242;21.118;2022-08-03T10:53:36;100727.12;;;39.82;30.20
33795;BME280;51430;52.242;21.118;2022-08-03T10:56:05;100731.54;;;40.55;28.92
33795;BME280;51430;52.242;21.118;2022-08-03T10:59:12;100736.78;;;40.65;27.91
33795;BME280;51430;52.242;21.118;2022-08-03T11:01:55;100731.39;;;39.69;28.43
33795;BME280;51430;52.242;21.118;2022-08-03T11:04:28;100727.60;;;39.11;28.81
33795;BME280;51430;52.242;21.118;2022-08-03T11:07:22;100728.75;;;38.03;29.76
33795;BME280;51430;52.242;21.118;2022-08-03T11:09:53;100721.92;;;38.78;29.20
33795;BME280;51430;52.242;21.118;2022-08-03T11:12:30;100723.56;;;39.60;28.41
33795;BME280;51430;52.242;21.118;2022-08-03T11:15:03;100720.99;;;38.50;29.87
33795;BME280;51430;52.242;21.118;2022-08-03T11:17:33;100719.84;;;39.44;30.06
33795;BME280;51430;52.242;21.118;2022-08-03T11:20:44;100724.73;;;40.47;27.45
33795;BME280;51430;52.242;21.118;2022-08-03T11:23:13;100723.31;;;40.63;27.44
33795;BME280;51430;52.242;21.118;2022-08-03T11:26:11;100722.33;;;40.88;27.32
33795;BME280;51430;52.242;21.118;2022-08-03T11:28:41;100722.68;;;41.39;27.24
33795;BME280;51430;52.242;21.118;2022-08-03T11:34:11;100724.49;;;44.13;24.78
33795;BME280;51430;52.242;21.118;2022-08-03T11:37:18;100727.19;;;44.68;24.56
33795;BME280;51430;52.242;21.118;2022-08-03T11:39:56;100722.35;;;44.61;24.01
33795;BME280;51430;52.242;21.118;2022-08-03T11:42:37;100718.95;;;44.73;24.53
33795;BME280;51430;52.242;21.118;2022-08-03T11:45:06;100712.25;;;43.74;25.92
33795;BME280;51430;52.242;21.118;2022-08-03T11:47:37;100710.83;;;41.94;28.13
33795;BME280;51430;52.242;21.118;2022-08-03T11:50:18;100702.77;;;40.22;30.18
33795;BME280;51430;52.242;21.118;2022-08-03T11:52:47;100699.61;;;38.86;32.01
33795;BME280;51430;52.242;21.118;2022-08-03T11:55:18;100695.85;;;37.99;32.02
33795;BME280;51430;52.242;21.118;2022-08-03T11:57:49;100694.81;;;37.57;32.84
33795;BME280;51430;52.242;21.118;2022-08-03T12:00:37;100687.27;;;37.10;33.15
33795;BME280;51430;52.242;21.118;2022-08-03T12:03:10;100686.41;;;36.55;33.46
33795;BME280;51430;52.242;21.118;2022-08-03T12:05:43;100678.98;;;36.36;34.60
33795;BME280;51430;52.242;21.118;2022-08-03T12:08:32;100682.92;;;37.95;32.46
33795;BME280;51430;52.242;21.118;2022-08-03T12:11:03;100684.36;;;40.00;30.56
33795;BME280;51430;52.242;21.118;2022-08-03T12:13:44;100691.93;;;41.52;28.65
33795;BME280;51430;52.242;21.118;2022-08-03T12:16:34;100691.27;;;42.58;26.62
33795;BME280;51430;52.242;21.118;2022-08-03T12:19:04;100690.60;;;42.92;26.05
33795;BME280;51430;52.242;21.118;2022-08-03T12:21:33;100690.38;;;43.74;25.94
33795;BME280;51430;52.242;21.118;2022-08-03T12:24:04;100693.86;;;44.15;24.60
33795;BME280;51430;52.242;21.118;2022-08-03T12:26:50;100690.28;;;44.29;24.25
33795;BME280;51430;52.242;21.118;2022-08-03T12:29:26;100686.81;;;43.42;23.87
33795;BME280;51430;52.242;21.118;2022-08-03T12:31:54;100688.86;;;41.84;24.82
33795;BME280;51430;52.242;21.118;2022-08-03T12:34:23;100684.14;;;41.06;25.89
33795;BME280;51430;52.242;21.118;2022-08-03T12:36:57;100685.41;;;41.40;25.70
33795;BME280;51430;52.242;21.118;2022-08-03T12:39:27;100678.66;;;40.29;26.59
33795;BME280;51430;52.242;21.118;2022-08-03T12:41:58;100669.52;;;39.29;27.44
33795;BME280;51430;52.242;21.118;2022-08-03T12:44:34;100671.08;;;39.06;28.03
33795;BME280;51430;52.242;21.118;2022-08-03T12:47:03;100672.67;;;39.50;27.23
33795;BME280;51430;52.242;21.118;2022-08-03T12:49:51;100666.66;;;40.60;26.29
33795;BME280;51430;52.242;21.118;2022-08-03T12:52:21;100671.02;;;41.76;26.12
33795;BME280;51430;52.242;21.118;2022-08-03T12:55:17;100673.21;;;41.94;25.60
33795;BME280;51430;52.242;21.118;2022-08-03T12:57:45;100669.73;;;41.69;25.39
33795;BME280;51430;52.242;21.118;2022-08-03T13:00:16;100665.95;;;40.61;26.27
33795;BME280;51430;52.242;21.118;2022-08-03T13:03:00;100659.98;;;40.32;26.65
33795;BME280;51430;52.242;21.118;2022-08-03T13:05:49;100661.81;;;41.39;25.59
33795;BME280;51430;52.242;21.118;2022-08-03T13:08:23;100659.45;;;41.85;26.25
33795;BME280;51430;52.242;21.118;2022-08-03T13:10:53;100657.24;;;42.04;25.46
33795;BME280;51430;52.242;21.118;2022-08-03T13:13:41;100653.70;;;41.46;25.27
33795;BME280;51430;52.242;21.118;2022-08-03T13:16:09;100647.06;;;40.49;26.60
33795;BME280;51430;52.242;21.118;2022-08-03T13:18:44;100643.77;;;39.69;27.07
33795;BME280;51430;52.242;21.118;2022-08-03T13:21:17;100639.89;;;39.09;27.75
33795;BME280;51430;52.242;21.118;2022-08-03T13:23:45;100640.77;;;39.10;27.43
33795;BME280;51430;52.242;21.118;2022-08-03T13:26:14;100638.02;;;39.14;27.51
33795;BME280;51430;52.242;21.118;2022-08-03T13:28:41;100636.71;;;39.27;27.44
33795;BME280;51430;52.242;21.118;2022-08-03T13:31:09;100633.35;;;39.24;27.56
33795;BME280;51430;52.242;21.118;2022-08-03T13:33:38;100626.58;;;39.13;26.87
33795;BME280;51430;52.242;21.118;2022-08-03T13:36:07;100629.86;;;39.34;27.27
33795;BME280;51430;52.242;21.118;2022-08-03T13:38:35;100631.11;;;39.35;26.97